createdAt,value
2022-10-20T00:01:14.339Z,1.23
2022-10-20T00:03:44.187Z,1.40
2022-10-20T00:06:13.586Z,3.13
2022-10-20T00:08:42.606Z,2.10
2022-10-20T00:11:11.579Z,2.97
2022-10-20T00:13:40.567Z,3.03
2022-10-20T00:16:09.309Z,1.60
2022-10-20T00:18:38.034Z,1.90
2022-10-20T00:21:09.241Z,1.23
2022-10-20T00:23:37.874Z,1.10
2022-10-20T00:26:07.413Z,0.80
2022-10-20T00:28:36.230Z,1.00
2022-10-20T00:31:05.171Z,3.37
2022-10-20T00:33:33.814Z,1.83
2022-10-20T00:36:02.361Z,2.83
2022-10-20T00:38:32.601Z,4.53
2022-10-20T00:41:03.098Z,3.23
2022-10-20T00:43:42.933Z,11.00
2022-10-20T00:46:13.019Z,1.07
2022-10-20T00:48:42.372Z,1.03
2022-10-20T00:51:11.005Z,2.63
2022-10-20T00:53:41.037Z,2.67
2022-10-20T00:56:09.656Z,1.20
2022-10-20T00:58:38.338Z,1.00
2022-10-20T01:01:06.807Z,1.07
2022-10-20T01:03:38.325Z,1.53
2022-10-20T01:06:07.210Z,5.10
2022-10-20T01:08:35.773Z,1.40
2022-10-20T01:11:09.725Z,33.10
2022-10-20T01:13:41.513Z,3.13
2022-10-20T01:16:14.864Z,1.77
2022-10-20T01:18:44.622Z,1.57
2022-10-20T01:21:23.189Z,1.53
2022-10-20T01:24:21.580Z,1.20
2022-10-20T01:27:07.602Z,0.97
2022-10-20T01:29:39.889Z,0.90
2022-10-20T01:32:12.259Z,0.80
2022-10-20T01:34:45.909Z,32.90
2022-10-20T01:37:28.404Z,43.30
2022-10-20T01:40:10.639Z,37.47
2022-10-20T01:42:40.730Z,59.33
2022-10-20T01:45:12.274Z,10.07
2022-10-20T01:47:41.371Z,3.07
2022-10-20T01:50:12.133Z,1.43
2022-10-20T01:52:40.597Z,5.03
2022-10-20T01:55:13.230Z,4.00
2022-10-20T01:57:46.345Z,15.20
2022-10-20T02:00:17.107Z,4.70
2022-10-20T02:02:54.322Z,7.50
2022-10-20T02:05:28.384Z,13.33
2022-10-20T02:08:01.147Z,17.40
2022-10-20T02:10:31.975Z,18.87
2022-10-20T02:13:02.274Z,103.80
2022-10-20T02:15:33.823Z,269.47
2022-10-20T02:18:03.287Z,161.43
2022-10-20T02:20:32.953Z,246.93
2022-10-20T02:23:02.302Z,173.37
2022-10-20T02:25:31.454Z,113.73
2022-10-20T02:30:35.921Z,104.03
2022-10-20T02:33:04.383Z,52.30
2022-10-20T02:35:33.790Z,85.23
2022-10-20T02:38:03.049Z,70.10
2022-10-20T02:40:31.746Z,44.77
2022-10-20T02:43:00.176Z,56.43
2022-10-20T02:45:28.737Z,43.50
2022-10-20T02:47:58.730Z,36.97
2022-10-20T02:50:27.143Z,11.53
2022-10-20T02:52:57.894Z,28.43
2022-10-20T02:55:26.462Z,9.03
2022-10-20T02:57:54.882Z,22.40
2022-10-20T03:00:23.783Z,30.87
2022-10-20T03:02:52.535Z,12.27
2022-10-20T03:05:22.344Z,0.70
2022-10-20T03:07:50.963Z,19.90
2022-10-20T03:10:19.640Z,208.97
2022-10-20T03:12:48.084Z,2.40
2022-10-20T03:15:16.927Z,1.63
2022-10-20T03:17:45.533Z,0.83
2022-10-20T03:20:13.957Z,0.90
2022-10-20T03:22:43.941Z,0.80
2022-10-20T03:25:12.498Z,12.37
2022-10-20T03:27:40.929Z,13.17
2022-10-20T03:30:10.120Z,16.63
2022-10-20T03:32:39.003Z,25.00
2022-10-20T03:35:07.975Z,7.53
2022-10-20T03:37:36.557Z,29.33
2022-10-20T03:40:06.923Z,11.97
2022-10-20T03:42:36.283Z,5.50
2022-10-20T03:45:05.336Z,36.30
2022-10-20T03:47:33.931Z,17.77
2022-10-20T03:50:02.434Z,21.90
2022-10-20T03:52:31.042Z,26.63
2022-10-20T03:54:59.616Z,21.90
2022-10-20T03:57:29.635Z,15.83
2022-10-20T03:59:58.262Z,22.47
2022-10-20T04:02:32.884Z,29.60
2022-10-20T04:05:02.086Z,35.20
2022-10-20T04:07:30.700Z,21.43
2022-10-20T04:10:02.170Z,22.70
2022-10-20T04:12:32.669Z,15.10
2022-10-20T04:15:01.450Z,7.13
2022-10-20T04:17:30.062Z,12.13
2022-10-20T04:19:58.634Z,10.27
2022-10-20T04:22:27.286Z,10.73
2022-10-20T04:24:55.754Z,10.43
2022-10-20T04:27:24.341Z,1.70
2022-10-20T04:29:54.298Z,1.50
2022-10-20T04:32:22.727Z,1.50
2022-10-20T04:34:51.269Z,1.43
2022-10-20T04:37:19.826Z,3.33
2022-10-20T04:39:48.258Z,1.20
2022-10-20T04:42:16.805Z,1.53
2022-10-20T04:44:45.447Z,0.97
2022-10-20T04:47:15.316Z,1.57
2022-10-20T04:49:44.324Z,1.20
2022-10-20T04:52:12.885Z,1.20
2022-10-20T04:54:41.310Z,2.90
2022-10-20T04:57:11.036Z,1.07
2022-10-20T04:59:39.652Z,1.30
2022-10-20T05:02:08.325Z,1.17
2022-10-20T05:04:38.408Z,1.00
2022-10-20T05:07:07.018Z,1.30
2022-10-20T05:09:35.590Z,2.73
2022-10-20T05:12:04.295Z,0.97
2022-10-20T05:14:32.888Z,1.37
2022-10-20T05:17:03.211Z,1.37
2022-10-20T05:19:34.027Z,3.70
2022-10-20T05:22:04.139Z,1.90
2022-10-20T05:24:32.567Z,2.87
2022-10-20T05:27:01.136Z,1.07
2022-10-20T05:29:29.578Z,1.37
2022-10-20T05:31:58.015Z,1.20
2022-10-20T05:34:26.734Z,3.17
2022-10-20T05:36:55.158Z,1.07
2022-10-20T05:39:25.158Z,1.03
2022-10-20T05:41:53.982Z,1.07
2022-10-20T05:44:22.491Z,0.97
2022-10-20T05:46:51.049Z,1.10
2022-10-20T05:49:19.596Z,1.10
2022-10-20T05:51:48.483Z,1.17
2022-10-20T05:54:17.390Z,1.00
2022-10-20T05:56:47.438Z,0.80
2022-10-20T05:59:15.990Z,2.13
2022-10-20T06:01:49.201Z,2.10
2022-10-20T06:04:18.482Z,1.60
2022-10-20T06:06:48.969Z,0.80
2022-10-20T06:09:18.029Z,1.13
2022-10-20T06:11:48.254Z,4.10
2022-10-20T06:14:17.333Z,0.80
2022-10-20T06:16:46.232Z,2.27
2022-10-20T06:19:14.770Z,1.03
2022-10-20T06:24:17.118Z,1.00
2022-10-20T06:26:45.899Z,5.37
2022-10-20T06:29:16.927Z,2.30
2022-10-20T06:31:46.246Z,2.33
2022-10-20T06:34:16.271Z,3.20
2022-10-20T06:36:45.623Z,1.20
2022-10-20T06:39:15.322Z,1.60
2022-10-20T06:41:43.813Z,0.90
2022-10-20T06:44:12.746Z,3.13
2022-10-20T06:46:42.798Z,1.43
2022-10-20T06:49:11.663Z,1.30
2022-10-20T06:51:40.223Z,1.50
2022-10-20T06:54:09.583Z,1.00
2022-10-20T06:56:38.272Z,2.50
2022-10-20T06:59:07.031Z,4.83
2022-10-20T07:01:36.491Z,1.70
2022-10-20T07:04:07.391Z,2.40
2022-10-20T07:06:37.282Z,4.30
2022-10-20T07:09:08.382Z,1.33
2022-10-20T07:11:37.555Z,1.70
2022-10-20T07:14:06.726Z,3.33
2022-10-20T07:16:36.645Z,1.80
2022-10-20T07:19:07.009Z,1.60
2022-10-20T07:21:39.232Z,1.20
2022-10-20T07:24:11.441Z,3.13
2022-10-20T07:26:40.806Z,1.97
2022-10-20T07:29:09.459Z,1.37
2022-10-20T07:31:38.896Z,2.20
2022-10-20T07:34:27.305Z,2.23
2022-10-20T07:36:56.825Z,1.60
2022-10-20T07:39:25.516Z,1.20
2022-10-20T07:41:54.129Z,4.80
2022-10-20T07:44:22.597Z,5.80
2022-10-20T07:46:51.246Z,3.83
2022-10-20T07:49:51.349Z,3.20
2022-10-20T07:52:10.139Z,3.23
2022-10-20T07:54:38.605Z,2.83
2022-10-20T07:57:07.019Z,2.00
2022-10-20T07:59:35.684Z,5.20
2022-10-20T08:02:04.183Z,4.83
2022-10-20T08:04:34.071Z,1.70
2022-10-20T08:07:02.885Z,3.80
2022-10-20T08:09:31.371Z,3.73
2022-10-20T08:11:59.831Z,3.63
2022-10-20T08:14:32.051Z,3.30
2022-10-20T08:17:03.311Z,8.90
2022-10-20T08:19:34.691Z,1.90
2022-10-20T08:22:04.939Z,2.57
2022-10-20T08:24:33.485Z,2.87
2022-10-20T08:27:02.318Z,5.40
2022-10-20T08:29:30.982Z,9.77
2022-10-20T08:31:59.615Z,5.17
2022-10-20T08:34:28.163Z,5.03
2022-10-20T08:36:56.693Z,3.30
2022-10-20T08:39:26.693Z,2.10
2022-10-20T08:42:08.185Z,3.73
2022-10-20T08:44:37.763Z,1.87
2022-10-20T08:47:07.966Z,2.90
2022-10-20T08:49:36.952Z,2.40
2022-10-20T08:52:05.805Z,1.93
2022-10-20T08:54:36.175Z,4.13
2022-10-20T08:57:04.642Z,1.70
2022-10-20T08:59:39.990Z,1.80
2022-10-20T09:02:15.159Z,1.77
2022-10-20T09:04:46.058Z,1.97
2022-10-20T09:07:18.939Z,1.97
2022-10-20T09:09:49.431Z,2.30
2022-10-20T09:12:18.202Z,2.60
2022-10-20T09:14:46.645Z,3.17
2022-10-20T09:17:17.132Z,1.50
2022-10-20T09:19:46.839Z,2.53
2022-10-20T09:22:15.555Z,4.97
2022-10-20T09:24:45.682Z,1.60
2022-10-20T09:27:23.331Z,2.93
2022-10-20T09:29:51.974Z,1.80
2022-10-20T09:35:22.117Z,2.53
2022-10-20T09:37:54.705Z,3.77
2022-10-20T09:40:24.481Z,2.93
2022-10-20T09:42:55.458Z,3.50
2022-10-20T09:45:25.446Z,1.93
2022-10-20T09:47:56.302Z,5.00
2022-10-20T09:50:26.699Z,3.20
2022-10-20T09:52:55.569Z,2.93
2022-10-20T09:55:28.972Z,2.67
2022-10-20T09:58:00.047Z,7.27
2022-10-20T10:00:37.277Z,1.70
2022-10-20T10:03:10.896Z,3.60
2022-10-20T10:05:39.558Z,1.57
2022-10-20T10:08:14.982Z,3.83
2022-10-20T10:10:45.155Z,1.73
2022-10-20T10:13:26.549Z,3.23
2022-10-20T10:16:05.926Z,7.20
2022-10-20T10:18:34.806Z,4.90
2022-10-20T10:21:05.287Z,5.27
2022-10-20T10:23:36.520Z,1.07
2022-10-20T10:26:05.817Z,3.67
2022-10-20T10:28:39.639Z,1.30
2022-10-20T10:31:26.445Z,2.77
2022-10-20T10:33:57.161Z,1.77
2022-10-20T10:36:33.129Z,1.87
2022-10-20T10:39:01.926Z,0.70
2022-10-20T10:41:42.799Z,2.40
2022-10-20T10:44:17.779Z,5.43
2022-10-20T10:46:54.842Z,2.30
2022-10-20T10:49:32.482Z,1.90
2022-10-20T10:52:05.685Z,1.27
2022-10-20T10:54:41.498Z,2.37
2022-10-20T10:57:14.979Z,4.20
2022-10-20T10:59:45.516Z,2.40
2022-10-20T11:02:31.612Z,0.77
2022-10-20T11:07:53.701Z,2.00
2022-10-20T11:10:24.732Z,2.37
2022-10-20T11:13:04.398Z,0.53
2022-10-20T11:15:41.415Z,4.47
2022-10-20T11:18:16.309Z,1.13
2022-10-20T11:20:50.441Z,1.97
2022-10-20T11:23:24.983Z,2.70
2022-10-20T11:25:56.948Z,1.23
2022-10-20T11:28:29.842Z,0.70
2022-10-20T11:31:00.975Z,1.33
2022-10-20T11:33:33.128Z,2.07
2022-10-20T11:36:06.968Z,0.60
2022-10-20T11:38:39.678Z,2.47
2022-10-20T11:41:10.170Z,0.50
2022-10-20T11:43:41.461Z,2.23
2022-10-20T11:46:13.309Z,1.13
2022-10-20T11:48:44.114Z,3.97
2022-10-20T11:51:27.499Z,1.30
2022-10-20T11:54:02.810Z,3.77
2022-10-20T11:56:43.293Z,1.57
2022-10-20T11:59:36.237Z,0.90
2022-10-20T12:02:14.798Z,3.10
2022-10-20T12:04:51.650Z,2.53
2022-10-20T12:07:27.401Z,3.00
2022-10-20T12:10:05.353Z,6.40
2022-10-20T12:12:38.619Z,1.40
2022-10-20T12:15:19.956Z,2.93
2022-10-20T12:17:50.359Z,2.70
2022-10-20T12:20:37.203Z,1.53
2022-10-20T12:23:06.046Z,1.87
2022-10-20T12:25:42.414Z,1.33
2022-10-20T12:28:29.576Z,4.13
2022-10-20T12:30:59.402Z,1.20
2022-10-20T12:33:39.112Z,1.63
2022-10-20T12:36:25.521Z,0.70
2022-10-20T12:38:55.018Z,3.80
2022-10-20T12:41:28.429Z,0.60
2022-10-20T12:44:00.826Z,2.17
2022-10-20T12:46:31.519Z,0.67
2022-10-20T12:49:05.572Z,2.20
2022-10-20T12:51:37.507Z,1.23
2022-10-20T12:54:08.419Z,1.27
2022-10-20T12:56:39.685Z,0.93
2022-10-20T12:59:25.955Z,0.87
2022-10-20T13:02:14.682Z,3.57
2022-10-20T13:04:58.094Z,3.77
2022-10-20T13:07:45.027Z,3.53
2022-10-20T13:10:29.117Z,0.93
2022-10-20T13:13:17.832Z,0.60
2022-10-20T13:15:48.706Z,1.47
2022-10-20T13:18:20.070Z,3.27
2022-10-20T13:20:51.618Z,2.60
2022-10-20T13:23:25.016Z,2.20
2022-10-20T13:25:54.427Z,2.57
2022-10-20T13:28:23.941Z,4.90
2022-10-20T13:31:07.355Z,1.83
2022-10-20T13:34:02.452Z,4.90
2022-10-20T13:36:37.624Z,3.83
2022-10-20T13:39:09.152Z,1.17
2022-10-20T13:41:43.500Z,6.03
2022-10-20T13:44:23.238Z,5.73
2022-10-20T13:46:58.410Z,1.87
2022-10-20T13:49:32.873Z,2.00
2022-10-20T13:52:07.142Z,0.70
2022-10-20T13:54:37.250Z,0.37
2022-10-20T13:57:06.134Z,1.13
2022-10-20T13:59:34.686Z,2.47
2022-10-20T14:02:05.391Z,2.10
2022-10-20T14:04:34.755Z,1.93
2022-10-20T14:07:10.102Z,2.30
2022-10-20T14:09:40.624Z,1.07
2022-10-20T14:12:14.989Z,2.87
2022-10-20T14:14:45.206Z,2.30
2022-10-20T14:17:20.438Z,0.63
2022-10-20T14:19:48.867Z,3.03
2022-10-20T14:22:21.534Z,0.50
2022-10-20T14:24:51.400Z,1.50
2022-10-20T14:27:21.299Z,1.43
2022-10-20T14:29:50.714Z,0.83
2022-10-20T14:32:20.376Z,1.70
2022-10-20T14:34:56.142Z,2.53
2022-10-20T14:37:28.731Z,4.40
2022-10-20T14:39:57.414Z,3.20
2022-10-20T14:42:27.102Z,2.00
2022-10-20T14:44:56.985Z,1.87
2022-10-20T14:47:26.043Z,1.90
2022-10-20T14:49:56.680Z,1.63
2022-10-20T14:52:30.601Z,4.17
2022-10-20T14:54:59.210Z,1.73
2022-10-20T14:57:40.545Z,0.47
2022-10-20T15:00:27.833Z,2.43
2022-10-20T15:02:58.816Z,1.87
2022-10-20T15:05:34.355Z,2.10
2022-10-20T15:08:10.639Z,0.60
2022-10-20T15:10:39.813Z,1.20
2022-10-20T15:15:42.112Z,3.40
2022-10-20T15:18:11.873Z,1.33
2022-10-20T15:20:41.080Z,1.57
2022-10-20T15:23:12.941Z,5.40
2022-10-20T15:25:43.956Z,1.57
2022-10-20T15:28:33.174Z,3.23
2022-10-20T15:31:02.409Z,6.67
2022-10-20T15:33:30.917Z,3.90
2022-10-20T15:36:00.793Z,2.37
2022-10-20T15:38:31.182Z,1.20
2022-10-20T15:43:35.063Z,5.03
2022-10-20T15:46:04.950Z,3.53
2022-10-20T15:48:33.452Z,1.27
2022-10-20T15:51:01.895Z,2.50
2022-10-20T15:53:31.834Z,0.60
2022-10-20T15:56:00.339Z,1.03
2022-10-20T15:58:28.754Z,1.67
2022-10-20T16:00:57.356Z,1.87
2022-10-20T16:03:25.954Z,6.03
2022-10-20T16:05:54.422Z,0.90
2022-10-20T16:08:23.087Z,3.60
2022-10-20T16:10:55.070Z,0.57
2022-10-20T16:13:23.558Z,2.73
2022-10-20T16:15:51.978Z,0.83
2022-10-20T16:18:20.480Z,1.60
2022-10-20T16:20:49.006Z,3.33
2022-10-20T16:23:17.441Z,2.00
2022-10-20T16:25:45.922Z,2.67
2022-10-20T16:28:15.770Z,2.13
2022-10-20T16:30:44.236Z,4.63
2022-10-20T16:33:12.897Z,0.93
2022-10-20T16:35:43.237Z,1.90
2022-10-20T16:38:11.879Z,3.80
2022-10-20T16:40:40.391Z,0.93
2022-10-20T16:43:08.929Z,1.87
2022-10-20T16:45:40.687Z,1.23
2022-10-20T16:48:09.317Z,0.50
2022-10-20T16:50:41.886Z,2.17
2022-10-20T16:53:10.689Z,2.53
2022-10-20T16:55:39.139Z,1.73
2022-10-20T16:58:07.570Z,2.00
2022-10-20T17:00:36.285Z,13.60
2022-10-20T17:03:06.210Z,200.40
2022-10-20T17:05:34.790Z,8.53
2022-10-20T17:08:03.510Z,3.37
2022-10-20T17:10:31.974Z,6.33
2022-10-20T17:13:00.517Z,1.17
2022-10-20T17:15:30.125Z,0.60
2022-10-20T17:17:58.538Z,3.53
2022-10-20T17:20:28.491Z,2.77
2022-10-20T17:22:57.073Z,1.03
2022-10-20T17:25:25.493Z,1.30
2022-10-20T17:27:53.994Z,0.60
2022-10-20T17:30:22.555Z,2.00
2022-10-20T17:32:50.963Z,1.30
2022-10-20T17:35:19.591Z,5.23
2022-10-20T17:37:49.534Z,4.03
2022-10-20T17:40:22.067Z,2.27
2022-10-20T17:42:50.921Z,4.37
2022-10-20T17:45:19.452Z,1.43
2022-10-20T17:47:47.866Z,2.47
2022-10-20T17:50:16.586Z,2.67
2022-10-20T17:52:45.115Z,1.73
2022-10-20T17:55:15.020Z,2.13
2022-10-20T17:57:43.789Z,1.90
2022-10-20T18:00:19.118Z,1.17
2022-10-20T18:02:51.894Z,3.10
2022-10-20T18:05:20.473Z,3.17
2022-10-20T18:07:48.884Z,3.13
2022-10-20T18:10:18.955Z,1.57
2022-10-20T18:12:47.409Z,0.50
2022-10-20T18:15:16.062Z,1.33
2022-10-20T18:17:44.742Z,1.83
2022-10-20T18:20:13.370Z,4.73
2022-10-20T18:22:41.997Z,3.73
2022-10-20T18:25:10.694Z,4.33
2022-10-20T18:27:40.501Z,0.97
2022-10-20T18:30:09.673Z,1.03
2022-10-20T18:32:38.729Z,0.53
2022-10-20T18:35:07.970Z,2.90
2022-10-20T18:37:36.642Z,3.13
2022-10-20T18:40:05.622Z,1.33
2022-10-20T18:42:35.135Z,0.77
2022-10-20T18:45:05.210Z,0.90
2022-10-20T18:47:33.835Z,0.93
2022-10-20T18:50:02.313Z,2.37
2022-10-20T18:52:31.793Z,1.57
2022-10-20T18:55:00.414Z,1.97
2022-10-20T18:57:28.853Z,1.70
2022-10-20T18:59:57.296Z,1.90
2022-10-20T19:02:28.585Z,0.90
2022-10-20T19:04:57.982Z,2.03
2022-10-20T19:07:26.470Z,3.83
2022-10-20T19:09:55.642Z,0.50
2022-10-20T19:12:24.156Z,2.47
2022-10-20T19:14:52.672Z,2.53
2022-10-20T19:17:21.277Z,1.17
2022-10-20T19:19:51.079Z,3.20
2022-10-20T19:22:20.289Z,2.90
2022-10-20T19:24:48.981Z,0.60
2022-10-20T19:27:32.632Z,0.53
2022-10-20T19:30:02.106Z,0.30
2022-10-20T19:32:30.537Z,0.50
2022-10-20T19:35:00.338Z,2.60
2022-10-20T19:37:29.041Z,2.47
2022-10-20T19:39:57.457Z,0.53
2022-10-20T19:42:25.890Z,0.70
2022-10-20T19:44:55.490Z,1.10
2022-10-20T19:47:23.919Z,1.60
2022-10-20T19:49:52.379Z,0.53
2022-10-20T19:52:22.541Z,1.30
2022-10-20T19:54:50.985Z,5.53
2022-10-20T19:57:19.457Z,1.57
2022-10-20T19:59:48.145Z,1.73
2022-10-20T20:02:16.585Z,1.20
2022-10-20T20:04:45.010Z,1.50
2022-10-20T20:07:13.793Z,1.13
2022-10-20T20:09:44.609Z,1.13
2022-10-20T20:12:13.108Z,2.07
2022-10-20T20:14:41.790Z,3.50
2022-10-20T20:17:11.137Z,1.77
2022-10-20T20:19:39.799Z,1.30
2022-10-20T20:22:08.391Z,137.73
2022-10-20T20:24:38.893Z,4.47
2022-10-20T20:27:08.696Z,1.40
2022-10-20T20:29:37.287Z,5.97
2022-10-20T20:32:05.785Z,0.77
2022-10-20T20:34:34.202Z,2.03
2022-10-20T20:37:02.995Z,1.10
2022-10-20T20:39:31.446Z,12.67
2022-10-20T20:42:00.089Z,0.30
2022-10-20T20:44:30.114Z,0.47
2022-10-20T20:46:58.633Z,1.03
2022-10-20T20:49:27.104Z,5.47
2022-10-20T20:51:55.992Z,2.50
2022-10-20T20:54:26.220Z,4.13
2022-10-20T20:56:55.677Z,8.70
2022-10-20T20:59:24.451Z,7.43
2022-10-20T21:01:54.239Z,0.67
2022-10-20T21:04:24.726Z,2.73
2022-10-20T21:07:03.185Z,5.07
2022-10-20T21:09:32.045Z,2.03
2022-10-20T21:12:00.825Z,2.20
2022-10-20T21:14:29.413Z,0.63
2022-10-20T21:16:59.339Z,1.77
2022-10-20T21:19:27.942Z,1.73
2022-10-20T21:21:58.470Z,17.27
2022-10-20T21:24:27.504Z,15.67
2022-10-20T21:26:56.955Z,3.60
2022-10-20T21:29:25.460Z,5.70
2022-10-20T21:31:55.143Z,3.60
2022-10-20T21:34:25.309Z,0.80
2022-10-20T21:36:53.728Z,17.43
2022-10-20T21:39:22.432Z,3.93
2022-10-20T21:41:51.138Z,2.07
2022-10-20T21:44:19.563Z,2.20
2022-10-20T21:46:50.108Z,10.23
2022-10-20T21:49:19.611Z,33.73
2022-10-20T21:51:50.698Z,3.13
2022-10-20T21:56:54.080Z,4.33
2022-10-20T21:59:24.234Z,2.40
2022-10-20T22:01:53.366Z,1.30
2022-10-20T22:04:22.707Z,0.70
2022-10-20T22:06:52.759Z,3.27
2022-10-20T22:09:21.815Z,6.63
2022-10-20T22:11:52.074Z,2.10
2022-10-20T22:14:20.926Z,0.57
2022-10-20T22:16:49.792Z,9.73
2022-10-20T22:19:19.490Z,0.97
2022-10-20T22:21:49.205Z,2.60
2022-10-20T22:24:21.754Z,1.87
2022-10-20T22:26:51.678Z,1.13
2022-10-20T22:29:20.881Z,0.70
2022-10-20T22:31:49.561Z,1.90
2022-10-20T22:34:18.169Z,1.70
2022-10-20T22:36:46.691Z,0.70
2022-10-20T22:39:15.351Z,0.77
2022-10-20T22:41:45.388Z,0.63
2022-10-20T22:44:13.899Z,4.33
2022-10-20T22:46:42.466Z,1.53
2022-10-20T22:49:11.103Z,24.00
2022-10-20T22:51:39.603Z,2.70
2022-10-20T22:54:08.297Z,0.63
2022-10-20T22:56:37.038Z,1.50
2022-10-20T22:59:06.967Z,1.50
2022-10-20T23:01:35.601Z,1.17
2022-10-20T23:04:04.235Z,0.60
2022-10-20T23:06:32.787Z,1.90
2022-10-20T23:09:01.432Z,4.13
2022-10-20T23:11:30.924Z,3.23
2022-10-20T23:13:59.417Z,1.57
2022-10-20T23:16:29.403Z,0.90
2022-10-20T23:18:58.035Z,2.97
2022-10-20T23:21:26.686Z,3.60
2022-10-20T23:23:55.409Z,47.00
2022-10-20T23:26:24.045Z,1.50
2022-10-20T23:28:52.556Z,26.10
2022-10-20T23:31:21.767Z,1.20
2022-10-20T23:33:52.573Z,0.77
2022-10-20T23:36:21.071Z,0.90
2022-10-20T23:38:49.815Z,6.23
2022-10-20T23:41:18.492Z,0.73
2022-10-20T23:43:46.984Z,17.73
2022-10-20T23:46:15.561Z,3.90
2022-10-20T23:48:44.118Z,2.50
2022-10-20T23:51:13.945Z,3.90
2022-10-20T23:53:42.506Z,1.03
2022-10-20T23:56:11.246Z,10.43
2022-10-20T23:58:39.674Z,1.70
